createdAt,value
2018-03-21T00:00:59.647Z,74.36
2018-03-21T00:01:59.658Z,74.45
2018-03-21T00:02:59.667Z,74.26
2018-03-21T00:03:59.677Z,75.02
2018-03-21T00:04:59.688Z,74.64
2018-03-21T00:05:59.703Z,75.12
2018-03-21T00:06:59.711Z,74.83
2018-03-21T00:07:59.710Z,75.68
2018-03-21T00:08:59.720Z,74.83
2018-03-21T00:09:59.730Z,74.55
2018-03-21T00:10:59.741Z,74.36
2018-03-21T00:11:59.751Z,74.74
2018-03-21T00:12:59.763Z,74.93
2018-03-21T00:13:59.776Z,75.02
2018-03-21T00:14:59.781Z,75.02
2018-03-21T00:15:59.792Z,75.12
2018-03-21T00:16:59.802Z,75.02
2018-03-21T00:17:59.815Z,75.78
2018-03-21T00:18:59.821Z,75.87
2018-03-21T00:19:59.831Z,75.78
2018-03-21T00:20:59.841Z,75.49
2018-03-21T00:21:59.852Z,76.15
2018-03-21T00:22:59.862Z,75.87
2018-03-21T00:23:59.872Z,76.06
2018-03-21T00:24:59.882Z,75.96
2018-03-21T00:25:59.892Z,75.78
2018-03-21T00:26:59.902Z,76.72
2018-03-21T00:27:59.922Z,76.15
2018-03-21T00:28:59.922Z,75.87
2018-03-21T00:29:59.935Z,76.06
2018-03-21T00:30:59.942Z,76.44
2018-03-21T00:31:59.950Z,76.34
2018-03-21T00:32:59.961Z,77.01
2018-03-21T00:33:59.974Z,77.10
2018-03-21T00:34:59.986Z,76.82
2018-03-21T00:35:59.991Z,77.01
2018-03-21T00:37:00.005Z,77.48
2018-03-21T00:38:00.016Z,77.48
2018-03-21T00:39:00.023Z,77.29
2018-03-21T00:40:00.034Z,77.39
2018-03-21T00:41:00.042Z,78.05
2018-03-21T00:42:00.060Z,77.95
2018-03-21T00:43:00.069Z,77.48
2018-03-21T00:44:00.071Z,78.05
2018-03-21T00:45:00.086Z,78.33
2018-03-21T00:46:00.093Z,78.33
2018-03-21T00:47:00.109Z,78.05
2018-03-21T00:48:00.112Z,78.52
2018-03-21T00:49:00.131Z,78.61
2018-03-21T00:50:00.139Z,78.52
2018-03-21T00:51:00.147Z,78.42
2018-03-21T00:52:00.155Z,78.23
2018-03-21T00:53:00.166Z,78.42
2018-03-21T00:54:00.170Z,78.80
2018-03-21T00:55:00.180Z,79.09
2018-03-21T00:56:00.190Z,79.85
2018-03-21T00:57:00.201Z,79.66
2018-03-21T00:58:00.211Z,79.75
2018-03-21T00:59:00.222Z,79.56
2018-03-21T01:00:00.230Z,79.56
2018-03-21T01:01:00.241Z,80.13
2018-03-21T01:02:00.250Z,80.04
2018-03-21T01:03:00.274Z,79.85
2018-03-21T01:04:00.271Z,79.85
2018-03-21T01:05:00.281Z,80.41
2018-03-21T01:06:00.290Z,79.94
2018-03-21T01:07:00.303Z,80.32
2018-03-21T01:08:00.310Z,80.41
2018-03-21T01:09:00.322Z,80.22
2018-03-21T01:10:00.330Z,80.32
2018-03-21T01:11:00.339Z,80.51
2018-03-21T01:12:00.349Z,81.26
2018-03-21T01:13:00.359Z,81.07
2018-03-21T01:14:00.369Z,81.45
2018-03-21T01:15:00.380Z,81.36
2018-03-21T01:16:00.389Z,81.17
2018-03-21T01:17:00.398Z,81.07
2018-03-21T01:18:00.409Z,81.45
2018-03-21T01:19:00.419Z,81.64
2018-03-21T01:20:00.428Z,81.45
2018-03-21T01:21:00.443Z,81.55
2018-03-21T01:22:00.448Z,82.02
2018-03-21T01:23:00.460Z,81.93
2018-03-21T01:24:00.468Z,81.64
2018-03-21T01:25:00.481Z,82.12
2018-03-21T01:26:00.491Z,82.31
2018-03-21T01:27:00.499Z,82.40
2018-03-21T01:28:00.506Z,82.02
2018-03-21T01:29:00.519Z,82.50
2018-03-21T01:30:00.525Z,82.40
2018-03-21T01:31:00.537Z,82.50
2018-03-21T01:32:00.549Z,82.12
2018-03-21T01:33:00.556Z,82.50
2018-03-21T01:34:00.569Z,82.50
2018-03-21T01:35:00.576Z,82.40
2018-03-21T01:36:00.585Z,82.78
2018-03-21T01:37:00.596Z,82.68
2018-03-21T01:38:00.607Z,83.15
2018-03-21T01:39:00.616Z,82.59
2018-03-21T01:40:00.626Z,83.25
2018-03-21T01:41:00.635Z,82.97
2018-03-21T01:42:00.645Z,83.15
2018-03-21T01:43:00.655Z,83.44
2018-03-21T01:44:00.664Z,83.44
2018-03-21T01:45:00.674Z,83.44
2018-03-21T01:46:00.684Z,83.78
2018-03-21T01:47:00.696Z,83.40
2018-03-21T01:48:00.702Z,84.34
2018-03-21T01:49:00.711Z,84.44
2018-03-21T01:50:00.773Z,84.25
2018-03-21T01:51:00.734Z,84.25
2018-03-21T01:52:00.743Z,84.44
2018-03-21T01:53:00.752Z,84.25
2018-03-21T01:54:00.762Z,84.06
2018-03-21T01:55:00.777Z,84.25
2018-03-21T01:56:00.782Z,84.16
2018-03-21T01:57:00.792Z,84.53
2018-03-21T01:58:00.802Z,84.16
2018-03-21T01:59:00.811Z,84.25
2018-03-21T02:00:00.820Z,84.72
2018-03-21T02:01:00.830Z,84.29
2018-03-21T02:02:00.840Z,84.39
2018-03-21T02:03:00.852Z,84.06
2018-03-21T02:04:00.859Z,84.25
2018-03-21T02:05:00.869Z,84.16
2018-03-21T02:06:00.880Z,84.10
2018-03-21T02:07:00.892Z,84.25
2018-03-21T02:08:00.898Z,84.10
2018-03-21T02:09:00.915Z,84.06
2018-03-21T02:10:00.920Z,83.97
2018-03-21T02:11:00.927Z,84.44
2018-03-21T02:12:00.937Z,85.10
2018-03-21T02:13:00.947Z,84.63
2018-03-21T02:14:00.956Z,84.29
2018-03-21T02:15:00.967Z,84.10
2018-03-21T02:16:00.978Z,84.29
2018-03-21T02:17:00.986Z,84.20
2018-03-21T02:18:00.996Z,84.01
2018-03-21T02:19:01.007Z,84.20
2018-03-21T02:20:01.013Z,84.10
2018-03-21T02:21:01.024Z,84.29
2018-03-21T02:22:01.034Z,84.29
2018-03-21T02:23:01.045Z,83.63
2018-03-21T02:24:01.053Z,83.63
2018-03-21T02:25:01.063Z,83.63
2018-03-21T02:26:01.074Z,83.63
2018-03-21T02:27:01.082Z,83.63
2018-03-21T02:28:01.093Z,83.72
2018-03-21T02:29:01.101Z,84.10
2018-03-21T02:30:01.114Z,83.63
2018-03-21T02:31:01.131Z,83.63
2018-03-21T02:32:01.132Z,83.82
2018-03-21T02:33:01.141Z,83.53
2018-03-21T02:34:01.154Z,83.82
2018-03-21T02:35:01.160Z,83.53
2018-03-21T02:36:01.169Z,83.82
2018-03-21T02:37:01.184Z,83.82
2018-03-21T02:38:01.191Z,83.44
2018-03-21T02:39:01.198Z,83.91
2018-03-21T02:40:01.207Z,84.20
2018-03-21T02:41:01.218Z,84.10
2018-03-21T02:42:01.227Z,84.10
2018-03-21T02:43:01.236Z,84.44
2018-03-21T02:44:01.264Z,83.78
2018-03-21T02:45:01.256Z,84.53
2018-03-21T02:46:01.468Z,84.16
2018-03-21T02:47:01.279Z,84.25
2018-03-21T02:48:01.284Z,83.78
2018-03-21T02:49:01.297Z,84.01
2018-03-21T02:50:01.305Z,84.06
2018-03-21T02:51:01.319Z,84.72
2018-03-21T02:52:01.324Z,84.72
2018-03-21T02:53:01.338Z,85.19
2018-03-21T02:54:01.357Z,85.00
2018-03-21T02:55:01.353Z,85.19
2018-03-21T02:56:01.370Z,84.63
2018-03-21T02:57:01.372Z,84.44
2018-03-21T02:58:01.382Z,84.63
2018-03-21T02:59:01.392Z,84.72
2018-03-21T03:00:01.399Z,85.10
2018-03-21T03:01:01.413Z,85.00
2018-03-21T03:02:01.419Z,85.00
2018-03-21T03:03:01.429Z,85.28
2018-03-21T03:04:01.438Z,85.00
2018-03-21T03:05:01.450Z,85.57
2018-03-21T03:06:01.504Z,85.38
2018-03-21T03:07:01.468Z,85.47
2018-03-21T03:08:01.479Z,85.38
2018-03-21T03:09:01.488Z,85.38
2018-03-21T03:10:01.496Z,85.76
2018-03-21T03:11:01.507Z,85.57
2018-03-21T03:12:01.519Z,85.28
2018-03-21T03:13:01.525Z,85.57
2018-03-21T03:14:01.535Z,85.47
2018-03-21T03:15:01.548Z,85.66
2018-03-21T03:16:01.554Z,85.66
2018-03-21T03:17:01.565Z,85.57
2018-03-21T03:18:01.573Z,85.19
2018-03-21T03:19:01.583Z,85.76
2018-03-21T03:20:01.597Z,86.42
2018-03-21T03:21:01.602Z,85.66
2018-03-21T03:22:01.614Z,85.66
2018-03-21T03:23:01.620Z,85.57
2018-03-21T03:24:01.630Z,85.57
2018-03-21T03:25:01.641Z,85.10
2018-03-21T03:26:01.650Z,85.47
2018-03-21T03:27:01.661Z,86.04
2018-03-21T03:28:01.669Z,85.95
2018-03-21T03:29:01.679Z,86.80
2018-03-21T03:30:01.696Z,86.42
2018-03-21T03:31:01.700Z,86.71
2018-03-21T03:32:01.707Z,87.08
2018-03-21T03:33:01.717Z,86.23
2018-03-21T03:34:01.729Z,86.61
2018-03-21T03:35:01.735Z,86.33
2018-03-21T03:36:01.752Z,86.80
2018-03-21T03:37:01.755Z,87.18
2018-03-21T03:38:01.766Z,86.61
2018-03-21T03:39:01.775Z,86.99
2018-03-21T03:40:01.824Z,87.18
2018-03-21T03:41:01.796Z,86.90
2018-03-21T03:42:01.803Z,86.90
2018-03-21T03:43:01.815Z,86.90
2018-03-21T03:44:01.831Z,87.37
2018-03-21T03:45:01.839Z,87.37
2018-03-21T03:46:01.843Z,87.74
2018-03-21T03:47:01.852Z,87.55
2018-03-21T03:48:01.861Z,87.55
2018-03-21T03:49:01.871Z,87.46
2018-03-21T03:50:01.880Z,87.55
2018-03-21T03:51:01.891Z,87.55
2018-03-21T03:52:01.901Z,87.46
2018-03-21T03:53:01.913Z,88.03
2018-03-21T03:54:01.920Z,87.46
2018-03-21T03:55:01.928Z,87.46
2018-03-21T03:56:01.938Z,87.27
2018-03-21T03:57:01.948Z,87.74
2018-03-21T03:58:01.958Z,88.03
2018-03-21T03:59:01.965Z,88.03
2018-03-21T04:00:01.975Z,87.93
2018-03-21T04:01:01.994Z,87.84
2018-03-21T04:02:01.995Z,88.31
2018-03-21T04:03:02.003Z,88.22
2018-03-21T04:04:02.013Z,88.98
2018-03-21T04:05:02.022Z,88.79
2018-03-21T04:06:02.037Z,89.17
2018-03-21T04:07:02.041Z,89.54
2018-03-21T04:08:02.052Z,89.17
2018-03-21T04:09:02.061Z,89.92
2018-03-21T04:10:02.072Z,89.83
2018-03-21T04:11:02.081Z,89.73
2018-03-21T04:12:02.092Z,89.45
2018-03-21T04:13:02.103Z,89.83
2018-03-21T04:14:02.111Z,90.01
2018-03-21T04:15:02.120Z,89.54
2018-03-21T04:16:02.129Z,89.73
2018-03-21T04:17:02.178Z,90.30
2018-03-21T04:18:02.189Z,90.30
2018-03-21T04:19:02.159Z,89.92
2018-03-21T04:20:02.162Z,90.01
2018-03-21T04:21:02.179Z,90.39
2018-03-21T04:22:02.182Z,90.30
2018-03-21T04:23:02.195Z,91.05
2018-03-21T04:24:02.204Z,90.77
2018-03-21T04:25:02.215Z,91.24
2018-03-21T04:26:02.224Z,90.96
2018-03-21T04:27:02.231Z,91.24
2018-03-21T04:28:02.240Z,91.05
2018-03-21T04:29:02.251Z,91.43
2018-03-21T04:30:02.270Z,91.53
2018-03-21T04:31:02.270Z,91.62
2018-03-21T04:32:02.279Z,91.91
2018-03-21T04:33:02.295Z,91.81
2018-03-21T04:34:02.298Z,91.81
2018-03-21T04:35:02.320Z,92.10
2018-03-21T04:36:02.319Z,92.10
2018-03-21T04:37:02.324Z,92.10
2018-03-21T04:38:02.334Z,92.00
2018-03-21T04:39:02.343Z,92.10
2018-03-21T04:40:02.352Z,92.19
2018-03-21T04:41:02.363Z,92.10
2018-03-21T04:42:02.372Z,92.19
2018-03-21T04:43:02.382Z,92.10
2018-03-21T04:44:02.389Z,92.00
2018-03-21T04:45:02.401Z,91.91
2018-03-21T04:46:02.409Z,92.10
2018-03-21T04:47:02.422Z,92.19
2018-03-21T04:48:02.431Z,92.10
2018-03-21T04:49:02.441Z,91.91
2018-03-21T04:50:02.448Z,92.19
2018-03-21T04:51:02.457Z,92.29
2018-03-21T04:52:02.466Z,92.10
2018-03-21T04:53:02.476Z,91.91
2018-03-21T04:54:02.482Z,92.29
2018-03-21T04:55:02.496Z,92.10
2018-03-21T04:56:02.524Z,92.29
2018-03-21T04:57:02.512Z,92.19
2018-03-21T04:58:02.529Z,91.91
2018-03-21T04:59:02.530Z,91.81
2018-03-21T05:00:02.542Z,92.38
2018-03-21T05:01:02.557Z,92.76
2018-03-21T05:02:02.557Z,93.32
2018-03-21T05:03:02.568Z,93.32
2018-03-21T05:04:02.576Z,92.94
2018-03-21T05:05:02.585Z,93.42
2018-03-21T05:06:02.595Z,93.13
2018-03-21T05:07:02.606Z,93.13
2018-03-21T05:08:02.612Z,93.32
2018-03-21T05:09:02.622Z,93.13
2018-03-21T05:10:02.630Z,92.76
2018-03-21T05:11:02.641Z,92.57
2018-03-21T05:12:02.648Z,92.57
2018-03-21T05:13:02.658Z,92.66
2018-03-21T05:14:02.668Z,92.66
2018-03-21T05:15:02.680Z,93.23
2018-03-21T05:16:02.685Z,93.23
2018-03-21T05:17:02.696Z,92.76
2018-03-21T05:18:02.706Z,93.42
2018-03-21T05:19:02.714Z,93.32
2018-03-21T05:20:02.723Z,92.94
2018-03-21T05:21:02.731Z,93.23
2018-03-21T05:22:02.744Z,93.04
2018-03-21T05:23:02.751Z,93.23
2018-03-21T05:24:02.760Z,93.23
2018-03-21T05:25:02.770Z,93.42
2018-03-21T05:26:02.780Z,93.13
2018-03-21T05:27:02.790Z,92.57
2018-03-21T05:28:02.797Z,92.66
2018-03-21T05:29:02.805Z,92.57
2018-03-21T05:30:02.815Z,92.38
2018-03-21T05:31:02.824Z,92.76
2018-03-21T05:32:02.833Z,92.29
2018-03-21T05:33:02.845Z,91.81
2018-03-21T05:34:02.857Z,92.10
2018-03-21T05:35:02.862Z,92.19
2018-03-21T05:36:02.876Z,92.14
2018-03-21T05:37:02.879Z,92.00
2018-03-21T05:38:02.894Z,92.61
2018-03-21T05:39:02.897Z,92.19
2018-03-21T05:40:02.907Z,92.19
2018-03-21T05:41:02.916Z,92.10
2018-03-21T05:42:02.926Z,92.14
2018-03-21T05:43:02.934Z,92.33
2018-03-21T05:44:02.943Z,92.71
2018-03-21T05:45:02.952Z,93.09
2018-03-21T05:46:02.962Z,93.37
2018-03-21T05:47:02.970Z,93.75
2018-03-21T05:48:02.991Z,94.03
2018-03-21T05:49:02.990Z,93.75
2018-03-21T05:50:03.003Z,94.03
2018-03-21T05:51:03.013Z,93.94
2018-03-21T05:52:03.016Z,93.56
2018-03-21T05:53:03.029Z,92.99
2018-03-21T05:54:03.033Z,93.66
2018-03-21T05:55:03.045Z,93.75
2018-03-21T05:56:03.051Z,93.66
2018-03-21T05:57:03.059Z,93.56
2018-03-21T05:58:03.070Z,93.66
2018-03-21T05:59:03.081Z,94.22
2018-03-21T06:00:03.092Z,93.56
2018-03-21T06:01:03.098Z,93.37
2018-03-21T06:02:03.107Z,93.66
2018-03-21T06:03:03.116Z,94.22
2018-03-21T06:04:03.123Z,93.84
2018-03-21T06:05:03.137Z,93.84
2018-03-21T06:06:03.143Z,94.03
2018-03-21T06:07:03.153Z,93.75
2018-03-21T06:08:03.164Z,93.75
2018-03-21T06:09:03.169Z,93.94
2018-03-21T06:10:03.181Z,94.13
2018-03-21T06:11:03.198Z,94.60
2018-03-21T06:12:03.198Z,94.70
2018-03-21T06:13:03.205Z,94.32
2018-03-21T06:14:03.217Z,94.51
2018-03-21T06:15:03.240Z,94.60
2018-03-21T06:16:03.234Z,94.13
2018-03-21T06:17:03.248Z,94.03
2018-03-21T06:18:03.255Z,94.41
2018-03-21T06:19:03.261Z,94.51
2018-03-21T06:20:03.272Z,94.89
2018-03-21T06:21:03.281Z,95.07
2018-03-21T06:22:03.291Z,95.64
2018-03-21T06:23:03.300Z,95.73
2018-03-21T06:24:03.309Z,95.73
2018-03-21T06:25:03.320Z,96.49
2018-03-21T06:26:03.329Z,96.54
2018-03-21T06:27:03.336Z,96.82
2018-03-21T06:28:03.343Z,96.91
2018-03-21T06:29:03.352Z,97.10
2018-03-21T06:30:03.364Z,97.86
2018-03-21T06:31:03.371Z,98.52
2018-03-21T06:32:03.384Z,98.71
2018-03-21T06:33:03.388Z,99.56
2018-03-21T06:34:03.400Z,99.94
2018-03-21T06:35:03.408Z,99.94
2018-03-21T06:36:03.419Z,99.99
2018-03-21T06:37:03.425Z,99.99
2018-03-21T06:38:03.444Z,99.99
2018-03-21T06:39:03.442Z,99.99
2018-03-21T06:40:03.452Z,99.99
2018-03-21T06:41:03.463Z,99.99
2018-03-21T06:42:03.475Z,99.99
2018-03-21T06:43:03.480Z,99.99
2018-03-21T06:44:03.489Z,99.75
2018-03-21T06:45:03.502Z,99.89
2018-03-21T06:46:03.508Z,99.33
2018-03-21T06:47:03.518Z,99.46
2018-03-21T06:48:03.531Z,99.42
2018-03-21T06:49:03.539Z,99.52
2018-03-21T06:50:03.548Z,99.42
2018-03-21T06:51:03.560Z,99.61
2018-03-21T06:52:03.565Z,99.33
2018-03-21T06:53:03.572Z,99.23
2018-03-21T06:54:03.581Z,98.66
2018-03-21T06:55:03.597Z,99.04
2018-03-21T06:56:03.602Z,98.95
2018-03-21T06:57:03.611Z,99.04
2018-03-21T06:59:03.629Z,99.61
2018-03-21T07:00:03.639Z,99.61
2018-03-21T07:01:03.647Z,99.33
2018-03-21T07:02:03.656Z,99.52
2018-03-21T07:03:03.669Z,99.80
2018-03-21T07:04:03.675Z,99.80
2018-03-21T07:05:03.686Z,99.99
2018-03-21T07:06:03.692Z,99.99
2018-03-21T07:07:03.704Z,99.99
2018-03-21T07:08:03.721Z,99.52
2018-03-21T07:09:03.721Z,99.99
2018-03-21T07:10:03.740Z,99.99
2018-03-21T07:11:03.739Z,99.99
2018-03-21T07:12:03.749Z,99.61
2018-03-21T07:13:03.757Z,99.80
2018-03-21T07:14:03.766Z,99.99
2018-03-21T07:15:03.778Z,99.99
2018-03-21T07:16:03.788Z,98.85
2018-03-21T07:17:03.812Z,98.66
2018-03-21T07:18:03.805Z,98.95
2018-03-21T07:19:04.443Z,98.57
2018-03-21T07:20:03.822Z,98.85
2018-03-21T07:21:03.829Z,98.85
2018-03-21T07:22:03.841Z,99.33
2018-03-21T07:23:03.864Z,99.14
2018-03-21T07:24:03.859Z,99.42
2018-03-21T07:25:03.868Z,99.80
2018-03-21T07:26:03.879Z,99.99
2018-03-21T07:27:03.894Z,99.99
2018-03-21T07:28:03.902Z,99.99
2018-03-21T07:29:03.907Z,99.89
2018-03-21T07:30:03.920Z,99.99
2018-03-21T07:31:03.926Z,99.61
2018-03-21T07:32:03.936Z,99.61
2018-03-21T07:33:03.945Z,99.71
2018-03-21T07:34:03.952Z,99.95
2018-03-21T07:35:03.963Z,99.99
2018-03-21T07:36:03.977Z,99.52
2018-03-21T07:37:03.982Z,99.52
2018-03-21T07:38:03.991Z,99.99
2018-03-21T07:39:04.012Z,99.99
2018-03-21T07:40:04.011Z,99.99
2018-03-21T07:41:04.024Z,99.99
2018-03-21T07:42:04.032Z,99.99
2018-03-21T07:43:04.045Z,99.99
2018-03-21T07:44:04.049Z,99.99
2018-03-21T07:45:04.074Z,99.99
2018-03-21T07:46:04.066Z,99.99
2018-03-21T07:47:04.078Z,99.99
2018-03-21T07:48:04.095Z,99.99
2018-03-21T07:49:04.097Z,99.99
2018-03-21T07:50:04.104Z,99.99
2018-03-21T07:51:04.134Z,99.99
2018-03-21T07:52:04.117Z,99.99
2018-03-21T07:53:04.128Z,99.99
2018-03-21T07:54:04.137Z,99.99
2018-03-21T07:55:04.179Z,99.99
2018-03-21T07:56:04.155Z,99.99
2018-03-21T07:57:04.178Z,99.99
2018-03-21T07:58:04.175Z,99.99
2018-03-21T07:59:04.188Z,99.99
2018-03-21T08:00:04.196Z,99.99
2018-03-21T08:01:04.216Z,99.99
2018-03-21T08:02:04.217Z,99.99
2018-03-21T08:03:04.223Z,99.99
2018-03-21T08:04:04.232Z,99.99
2018-03-21T08:06:04.275Z,99.99
2018-03-21T08:07:04.484Z,99.99
2018-03-21T08:08:04.275Z,99.99
2018-03-21T08:09:04.286Z,99.99
2018-03-21T08:10:04.294Z,99.99
2018-03-21T08:11:04.304Z,99.99
2018-03-21T08:12:04.313Z,99.99
2018-03-21T08:13:04.323Z,99.99
2018-03-21T08:14:04.333Z,99.71
2018-03-21T08:15:04.393Z,99.71
2018-03-21T08:16:04.352Z,99.90
2018-03-21T08:17:04.362Z,99.52
2018-03-21T08:18:04.380Z,99.80
2018-03-21T08:19:04.387Z,99.99
2018-03-21T08:20:04.391Z,99.99
2018-03-21T08:21:04.415Z,99.99
2018-03-21T08:22:04.413Z,99.99
2018-03-21T08:23:04.426Z,99.99
2018-03-21T08:24:04.433Z,99.05
2018-03-21T08:25:04.549Z,98.67
2018-03-21T08:26:04.460Z,98.20
2018-03-21T08:27:04.475Z,97.53
2018-03-21T08:28:04.482Z,97.58
2018-03-21T08:29:04.516Z,97.87
2018-03-21T08:30:04.498Z,97.53
2018-03-21T08:31:04.512Z,97.82
2018-03-21T08:32:04.521Z,98.48
2018-03-21T08:33:04.745Z,98.29
2018-03-21T08:34:04.702Z,98.44
2018-03-21T08:35:05.587Z,98.25
2018-03-21T08:36:04.560Z,98.15
2018-03-21T08:37:04.569Z,97.58
2018-03-21T08:38:04.580Z,97.49
2018-03-21T08:39:04.602Z,97.20
2018-03-21T08:40:04.601Z,97.87
2018-03-21T08:41:04.613Z,97.87
2018-03-21T08:42:04.623Z,97.96
2018-03-21T08:43:04.632Z,98.15
2018-03-21T08:44:04.644Z,97.39
2018-03-21T08:45:04.668Z,97.58
2018-03-21T08:46:04.693Z,97.58
2018-03-21T08:47:04.676Z,97.39
2018-03-21T08:48:04.683Z,97.30
2018-03-21T08:49:04.696Z,97.58
2018-03-21T08:50:04.706Z,97.20
2018-03-21T08:51:04.717Z,98.06
2018-03-21T08:52:04.728Z,97.30
2018-03-21T08:53:04.741Z,96.92
2018-03-21T08:54:04.750Z,96.35
2018-03-21T08:55:04.762Z,96.35
2018-03-21T08:56:04.772Z,96.07
2018-03-21T08:57:04.784Z,96.26
2018-03-21T08:58:04.795Z,96.73
2018-03-21T08:59:04.806Z,96.45
2018-03-21T09:00:04.813Z,96.45
2018-03-21T09:01:09.164Z,96.83
2018-03-21T09:03:04.851Z,95.78
2018-03-21T09:04:04.859Z,96.07
2018-03-21T09:05:04.892Z,95.74
2018-03-21T09:06:04.886Z,95.07
2018-03-21T09:07:04.996Z,94.98
2018-03-21T09:08:04.904Z,94.60
2018-03-21T09:09:04.924Z,93.75
2018-03-21T09:10:04.927Z,94.23
2018-03-21T09:11:04.945Z,93.75
2018-03-21T09:12:04.950Z,93.56
2018-03-21T09:13:05.001Z,93.94
2018-03-21T09:14:04.980Z,94.23
2018-03-21T09:15:04.985Z,93.56
2018-03-21T09:16:04.997Z,93.46
2018-03-21T09:17:05.010Z,93.37
2018-03-21T09:18:05.037Z,92.90
2018-03-21T09:19:05.031Z,93.46
2018-03-21T09:20:05.041Z,93.65
2018-03-21T09:21:05.051Z,93.27
2018-03-21T09:22:06.048Z,93.27
2018-03-21T09:23:05.076Z,93.27
2018-03-21T09:24:05.089Z,93.27
2018-03-21T09:25:05.106Z,93.75
2018-03-21T09:26:05.150Z,92.99
2018-03-21T09:27:05.119Z,93.08
2018-03-21T09:28:05.135Z,92.52
2018-03-21T09:29:05.163Z,92.38
2018-03-21T09:30:05.159Z,91.48
2018-03-21T09:31:05.367Z,91.38
2018-03-21T09:32:05.187Z,92.43
2018-03-21T09:33:05.209Z,92.61
2018-03-21T09:34:05.201Z,92.43
2018-03-21T09:35:05.214Z,92.43
2018-03-21T09:36:05.246Z,92.38
2018-03-21T09:37:05.373Z,92.33
2018-03-21T09:38:05.245Z,92.24
2018-03-21T09:39:05.436Z,92.52
2018-03-21T09:40:05.372Z,93.27
2018-03-21T09:41:05.280Z,93.27
2018-03-21T09:42:05.292Z,92.28
2018-03-21T09:43:05.305Z,92.09
2018-03-21T09:44:05.317Z,91.43
2018-03-21T09:45:05.330Z,91.24
2018-03-21T09:46:05.339Z,90.95
2018-03-21T09:47:05.353Z,91.05
2018-03-21T09:48:05.364Z,90.58
2018-03-21T09:49:05.393Z,90.29
2018-03-21T09:50:05.383Z,90.48
2018-03-21T09:51:05.394Z,90.29
2018-03-21T09:52:05.402Z,89.29
2018-03-21T09:53:05.431Z,88.92
2018-03-21T09:54:05.428Z,88.16
2018-03-21T09:55:05.451Z,87.77
2018-03-21T09:56:05.451Z,87.68
2018-03-21T09:57:05.463Z,88.16
2018-03-21T09:58:05.481Z,88.35
2018-03-21T09:59:05.749Z,87.49
2018-03-21T10:00:06.570Z,87.87
2018-03-21T10:01:05.513Z,87.97
2018-03-21T10:02:05.527Z,88.06
2018-03-21T10:03:05.548Z,87.68
2018-03-21T10:04:05.551Z,87.59
2018-03-21T10:05:05.571Z,87.59
2018-03-21T10:06:05.582Z,88.16
2018-03-21T10:07:05.588Z,87.40
2018-03-21T10:08:05.598Z,86.83
2018-03-21T10:09:05.610Z,86.64
2018-03-21T10:10:05.625Z,87.02
2018-03-21T10:11:05.636Z,86.45
2018-03-21T10:12:05.648Z,86.07
2018-03-21T10:13:05.675Z,85.88
2018-03-21T10:14:05.673Z,86.45
2018-03-21T10:15:05.685Z,87.68
2018-03-21T10:16:05.703Z,87.68
2018-03-21T10:17:05.711Z,87.59
2018-03-21T10:18:05.723Z,87.02
2018-03-21T10:19:05.735Z,87.12
2018-03-21T10:20:05.748Z,86.74
2018-03-21T10:21:05.757Z,86.26
2018-03-21T10:22:05.772Z,86.55
2018-03-21T10:23:05.783Z,86.64
2018-03-21T10:24:05.866Z,86.64
2018-03-21T10:25:05.805Z,86.35
2018-03-21T10:26:06.978Z,86.45
2018-03-21T10:27:05.848Z,86.35
2018-03-21T10:28:05.842Z,86.35
2018-03-21T10:29:05.855Z,86.55
2018-03-21T10:30:05.872Z,85.97
2018-03-21T10:31:05.879Z,86.11
2018-03-21T10:32:05.912Z,85.55
2018-03-21T10:33:05.915Z,84.69
2018-03-21T10:34:05.915Z,84.22
2018-03-21T10:35:05.939Z,84.22
2018-03-21T10:36:05.948Z,84.31
2018-03-21T10:37:05.954Z,84.31
2018-03-21T10:38:05.967Z,84.84
2018-03-21T10:39:06.059Z,85.07
2018-03-21T10:40:05.994Z,84.69
2018-03-21T10:41:06.000Z,84.88
2018-03-21T10:42:06.015Z,83.46
2018-03-21T10:43:06.025Z,82.70
2018-03-21T10:44:06.041Z,81.94
2018-03-21T10:45:06.106Z,82.17
2018-03-21T10:46:06.063Z,81.98
2018-03-21T10:47:06.080Z,81.51
2018-03-21T10:48:06.093Z,81.27
2018-03-21T10:49:06.207Z,82.13
2018-03-21T10:50:06.115Z,82.42
2018-03-21T10:51:06.131Z,82.51
2018-03-21T10:52:06.140Z,82.60
2018-03-21T10:53:06.150Z,82.89
2018-03-21T10:54:06.192Z,83.27
2018-03-21T10:55:06.180Z,83.65
2018-03-21T10:56:06.196Z,84.55
2018-03-21T10:57:06.213Z,84.46
2018-03-21T10:58:06.214Z,84.94
2018-03-21T10:59:06.234Z,84.55
2018-03-21T11:00:06.239Z,84.84
2018-03-21T11:01:06.452Z,85.17
2018-03-21T11:02:06.329Z,84.98
2018-03-21T11:03:06.275Z,84.98
2018-03-21T11:04:06.288Z,85.17
2018-03-21T11:05:06.300Z,85.07
2018-03-21T11:06:06.318Z,84.88
2018-03-21T11:07:06.332Z,85.64
2018-03-21T11:08:06.358Z,85.50
2018-03-21T11:09:06.403Z,85.97
2018-03-21T11:10:06.360Z,86.07
2018-03-21T11:11:06.376Z,86.45
2018-03-21T11:12:06.389Z,86.07
2018-03-21T11:13:06.397Z,85.64
2018-03-21T11:14:06.415Z,86.11
2018-03-21T11:15:06.420Z,85.93
2018-03-21T11:16:06.432Z,86.16
2018-03-21T11:17:06.449Z,85.88
2018-03-21T11:18:06.457Z,86.74
2018-03-21T11:19:06.468Z,86.07
2018-03-21T11:20:06.493Z,86.02
2018-03-21T11:21:06.493Z,85.97
2018-03-21T11:22:06.506Z,86.26
2018-03-21T11:23:06.518Z,86.11
2018-03-21T11:24:06.531Z,86.59
2018-03-21T11:25:06.541Z,86.21
2018-03-21T11:26:06.556Z,85.64
2018-03-21T11:27:06.571Z,85.64
2018-03-21T11:28:06.579Z,85.55
2018-03-21T11:29:06.643Z,86.21
2018-03-21T11:30:06.600Z,86.40
2018-03-21T11:31:06.616Z,86.30
2018-03-21T11:32:06.638Z,85.74
2018-03-21T11:33:06.646Z,85.45
2018-03-21T11:34:06.681Z,85.93
2018-03-21T11:35:06.662Z,85.74
2018-03-21T11:36:06.674Z,85.26
2018-03-21T11:37:06.715Z,84.50
2018-03-21T11:38:06.702Z,84.41
2018-03-21T11:39:06.764Z,84.45
2018-03-21T11:40:06.724Z,83.22
2018-03-21T11:41:06.735Z,83.22
2018-03-21T11:42:06.749Z,81.74
2018-03-21T11:43:06.762Z,80.51
2018-03-21T11:44:06.778Z,80.32
2018-03-21T11:45:06.786Z,79.94
2018-03-21T11:46:06.797Z,79.74
2018-03-21T11:47:06.811Z,80.27
2018-03-21T11:48:06.822Z,80.46
2018-03-21T11:49:06.841Z,80.75
2018-03-21T11:50:06.854Z,81.41
2018-03-21T11:51:06.880Z,81.13
2018-03-21T11:52:06.882Z,80.60
2018-03-21T11:53:06.886Z,80.22
2018-03-21T11:54:06.901Z,80.32
2018-03-21T11:55:06.924Z,80.22
2018-03-21T11:56:06.940Z,79.84
2018-03-21T11:57:06.946Z,79.36
2018-03-21T11:58:06.959Z,78.23
2018-03-21T11:59:06.969Z,77.94
2018-03-21T12:00:06.981Z,78.03
2018-03-21T12:01:07.003Z,78.80
2018-03-21T12:02:07.015Z,78.56
2018-03-21T12:03:07.027Z,78.66
2018-03-21T12:04:07.035Z,78.80
2018-03-21T12:05:07.050Z,78.23
2018-03-21T12:06:07.068Z,77.66
2018-03-21T12:07:07.085Z,77.66
2018-03-21T12:08:07.091Z,77.75
2018-03-21T12:09:07.104Z,77.43
2018-03-21T12:10:07.124Z,77.71
2018-03-21T12:11:07.132Z,78.47
2018-03-21T12:12:07.146Z,79.23
2018-03-21T12:13:07.245Z,80.24
2018-03-21T12:14:07.179Z,80.90
2018-03-21T12:15:07.540Z,80.75
2018-03-21T12:16:07.198Z,80.94
2018-03-21T12:17:07.208Z,80.37
2018-03-21T12:18:07.232Z,80.52
2018-03-21T12:19:07.239Z,80.52
2018-03-21T12:20:07.279Z,80.24
2018-03-21T12:21:07.265Z,80.33
2018-03-21T12:22:07.288Z,80.46
2018-03-21T12:23:07.295Z,79.85
2018-03-21T12:24:07.311Z,80.56
2018-03-21T12:25:07.325Z,80.52
2018-03-21T12:26:07.339Z,80.43
2018-03-21T12:27:07.338Z,80.65
2018-03-21T12:28:07.353Z,79.95
2018-03-21T12:29:07.375Z,80.33
2018-03-21T12:30:07.384Z,80.62
2018-03-21T12:31:07.399Z,80.99
2018-03-21T12:32:07.412Z,81.27
2018-03-21T12:33:07.422Z,80.71
2018-03-21T12:34:07.432Z,81.18
2018-03-21T12:35:07.446Z,81.56
2018-03-21T12:36:07.466Z,82.23
2018-03-21T12:37:07.469Z,81.85
2018-03-21T12:38:07.486Z,81.75
2018-03-21T12:39:07.491Z,80.52
2018-03-21T12:40:07.523Z,80.62
2018-03-21T12:41:07.518Z,79.95
2018-03-21T12:42:08.182Z,80.14
2018-03-21T12:43:07.537Z,79.47
2018-03-21T12:44:07.552Z,80.62
2018-03-21T12:45:07.610Z,81.18
2018-03-21T12:46:07.574Z,82.60
2018-03-21T12:47:07.589Z,82.13
2018-03-21T12:48:07.601Z,82.60
2018-03-21T12:49:07.612Z,82.04
2018-03-21T12:50:07.634Z,81.99
2018-03-21T12:51:07.639Z,82.23
2018-03-21T12:52:07.661Z,82.04
2018-03-21T12:53:07.660Z,82.70
2018-03-21T12:54:07.679Z,82.13
2018-03-21T12:55:07.695Z,82.13
2018-03-21T12:56:07.861Z,81.66